Allison Park, PA

8:06 PM EST on December 05, 2019 (GMT -0500)
Hampton Twp off Clearview RD | | Change Station

Elev 1110 ft 40.56 °N, 79.95 °W | Updated 18 seconds ago

Mostly Cloudy
Mostly Cloudy
31.3 °F
Feels Like 31 °F
N
0
Wind Variable Wind from West
Gusts 0.0 mph

Today
High -- | Low -- °F
--% Chance of Precip.
Yesterday
High -- | Low -- °F
Precip. -- in
Pressure 30.14 in
Visibility 10.0 miles
Clouds Few 9000 ft
Windchill 31 °F
Dew Point 29 °F
Humidity 91%
Rainfall 0.03 in
Snow Depth Not available.
7:27 AM 4:52 PM
Waxing Gibbous, 66% visible
METAR KAGC 060053Z 25005KT 10SM FEW090 02/M04 A3009 RMK AO2 SLP205 T00171044
Pressure 30.14 in
Visibility 10.0 miles
Clouds Few 9000 ft
Windchill 31 °F
Dew Point 29 °F
Humidity 91%
Rainfall 0.03 in
Snow Depth Not available.
7:27 AM 4:52 PM
Waxing Gibbous, 66% visible
METAR KAGC 060053Z 25005KT 10SM FEW090 02/M04 A3009 RMK AO2 SLP205 T00171044

Get Severe Weather Alerts

Thanks for signing up!

Be on the lookout for a verification email in your inbox.

You'll start receiving the daily forecast at 6 AM.

×

10-Day Weather Forecast

Almanac

Astronomy

Dec. 05, 2019 Rise Set
Actual Time
Civil Twilight
Nautical Twilight
Astronomical Twilight
Moon
Length of Visible Light
Length of Day
Tomorrow will be .
, % of the Moon is Illuminated

Today's Extremes

State Highs State Lows

Community

WunderPhotos

Category 6

Welcome to Category 6. This is the collective home for Weather Underground's featured writeups by Dr. Jeff Masters (right), Bob Henson (left), Chris Burt, and other regular contributors.

Nearby

Air Quality

  Air Quality AQ Index Pollutant
Not available.

Snow Depth

Station Depth Elevation

Earthquake Activity

City Distance Mag. Time & Date
Minimum magnitude displayed is 2.5.

Coastal Water Temperatures

Place Temperature

Stations

Nearby Weather Stations

Station Location Temp. Windchill Dew Point Humidity Wind Precip. Elev Updated Type
                   

Watches & Warnings

There are currently no watches in effect.